sensor_id;sensor_type;location;lat;lon;timestamp;P1;durP1;ratioP1;P2;durP2;ratioP2
3922;SDS011;1976;51.694;6.256;2023-02-07T00:01:55;17.40;;;6.57;;
3922;SDS011;1976;51.694;6.256;2023-02-07T00:04:20;22.17;;;8.30;;
3922;SDS011;1976;51.694;6.256;2023-02-07T00:06:46;20.87;;;8.30;;
3922;SDS011;1976;51.694;6.256;2023-02-07T00:09:12;22.80;;;7.70;;
3922;SDS011;1976;51.694;6.256;2023-02-07T00:11:37;19.63;;;8.50;;
3922;SDS011;1976;51.694;6.256;2023-02-07T00:14:05;30.33;;;8.40;;
3922;SDS011;1976;51.694;6.256;2023-02-07T00:16:32;35.50;;;7.73;;
3922;SDS011;1976;51.694;6.256;2023-02-07T00:18:58;28.57;;;9.53;;
3922;SDS011;1976;51.694;6.256;2023-02-07T00:21:24;21.27;;;8.70;;
3922;SDS011;1976;51.694;6.256;2023-02-07T00:23:51;20.57;;;8.83;;
3922;SDS011;1976;51.694;6.256;2023-02-07T00:26:18;20.93;;;9.60;;
3922;SDS011;1976;51.694;6.256;2023-02-07T00:28:45;25.80;;;9.20;;
3922;SDS011;1976;51.694;6.256;2023-02-07T00:31:13;18.40;;;8.57;;
3922;SDS011;1976;51.694;6.256;2023-02-07T00:33:41;19.53;;;8.37;;
3922;SDS011;1976;51.694;6.256;2023-02-07T00:36:09;36.37;;;10.07;;
3922;SDS011;1976;51.694;6.256;2023-02-07T00:38:36;32.53;;;9.30;;
3922;SDS011;1976;51.694;6.256;2023-02-07T00:41:02;39.57;;;9.57;;
3922;SDS011;1976;51.694;6.256;2023-02-07T00:43:28;29.03;;;9.00;;
3922;SDS011;1976;51.694;6.256;2023-02-07T00:45:55;20.37;;;9.10;;
3922;SDS011;1976;51.694;6.256;2023-02-07T00:48:21;23.23;;;8.63;;
3922;SDS011;1976;51.694;6.256;2023-02-07T00:50:47;20.17;;;8.33;;
3922;SDS011;1976;51.694;6.256;2023-02-07T00:53:12;24.33;;;9.00;;
3922;SDS011;1976;51.694;6.256;2023-02-07T00:55:38;19.57;;;9.20;;
3922;SDS011;1976;51.694;6.256;2023-02-07T00:58:03;17.67;;;8.20;;
3922;SDS011;1976;51.694;6.256;2023-02-07T01:00:29;19.40;;;7.80;;
3922;SDS011;1976;51.694;6.256;2023-02-07T01:02:55;18.37;;;10.03;;
3922;SDS011;1976;51.694;6.256;2023-02-07T01:05:20;23.57;;;10.03;;
3922;SDS011;1976;51.694;6.256;2023-02-07T01:07:46;21.53;;;10.23;;
3922;SDS011;1976;51.694;6.256;2023-02-07T01:10:11;24.87;;;9.03;;
3922;SDS011;1976;51.694;6.256;2023-02-07T01:12:37;18.83;;;8.77;;
3922;SDS011;1976;51.694;6.256;2023-02-07T01:15:03;16.30;;;8.47;;
3922;SDS011;1976;51.694;6.256;2023-02-07T01:17:31;15.73;;;9.00;;
3922;SDS011;1976;51.694;6.256;2023-02-07T01:19:57;20.30;;;9.00;;
3922;SDS011;1976;51.694;6.256;2023-02-07T01:22:24;23.60;;;9.47;;
3922;SDS011;1976;51.694;6.256;2023-02-07T01:24:53;24.87;;;9.40;;
3922;SDS011;1976;51.694;6.256;2023-02-07T01:27:20;21.97;;;9.60;;
3922;SDS011;1976;51.694;6.256;2023-02-07T01:29:47;21.33;;;10.17;;
3922;SDS011;1976;51.694;6.256;2023-02-07T01:32:13;19.20;;;10.03;;
3922;SDS011;1976;51.694;6.256;2023-02-07T01:34:39;26.67;;;9.93;;
3922;SDS011;1976;51.694;6.256;2023-02-07T01:37:05;32.93;;;10.23;;
3922;SDS011;1976;51.694;6.256;2023-02-07T01:39:30;25.10;;;9.97;;
3922;SDS011;1976;51.694;6.256;2023-02-07T01:41:56;26.33;;;13.70;;
3922;SDS011;1976;51.694;6.256;2023-02-07T01:46:50;32.80;;;10.70;;
3922;SDS011;1976;51.694;6.256;2023-02-07T01:49:19;21.53;;;9.40;;
3922;SDS011;1976;51.694;6.256;2023-02-07T01:51:51;20.87;;;11.10;;
3922;SDS011;1976;51.694;6.256;2023-02-07T01:54:20;26.80;;;10.43;;
3922;SDS011;1976;51.694;6.256;2023-02-07T01:56:53;22.87;;;10.70;;
3922;SDS011;1976;51.694;6.256;2023-02-07T01:59:21;20.67;;;9.83;;
3922;SDS011;1976;51.694;6.256;2023-02-07T02:01:48;26.20;;;10.70;;
3922;SDS011;1976;51.694;6.256;2023-02-07T02:04:15;22.00;;;10.97;;
3922;SDS011;1976;51.694;6.256;2023-02-07T02:06:40;24.53;;;11.47;;
3922;SDS011;1976;51.694;6.256;2023-02-07T02:09:08;46.60;;;12.93;;
3922;SDS011;1976;51.694;6.256;2023-02-07T02:11:44;30.10;;;12.80;;
3922;SDS011;1976;51.694;6.256;2023-02-07T02:28:12;32.13;;;12.57;;
3922;SDS011;1976;51.694;6.256;2023-02-07T02:33:23;47.57;;;16.00;;
3922;SDS011;1976;51.694;6.256;2023-02-07T02:39:41;41.30;;;17.70;;
3922;SDS011;1976;51.694;6.256;2023-02-07T02:42:01;42.73;;;16.60;;
3922;SDS011;1976;51.694;6.256;2023-02-07T02:44:42;39.00;;;17.80;;
3922;SDS011;1976;51.694;6.256;2023-02-07T02:47:12;38.17;;;15.07;;
3922;SDS011;1976;51.694;6.256;2023-02-07T02:49:38;45.27;;;17.27;;
3922;SDS011;1976;51.694;6.256;2023-02-07T02:52:06;53.53;;;18.17;;
3922;SDS011;1976;51.694;6.256;2023-02-07T02:54:33;47.50;;;18.87;;
3922;SDS011;1976;51.694;6.256;2023-02-07T03:15:23;55.47;;;20.80;;
3922;SDS011;1976;51.694;6.256;2023-02-07T03:22:46;48.53;;;21.00;;
3922;SDS011;1976;51.694;6.256;2023-02-07T03:25:14;62.57;;;22.00;;
3922;SDS011;1976;51.694;6.256;2023-02-07T03:27:43;70.33;;;23.00;;
3922;SDS011;1976;51.694;6.256;2023-02-07T03:30:12;66.10;;;22.03;;
3922;SDS011;1976;51.694;6.256;2023-02-07T03:32:41;61.77;;;21.70;;
3922;SDS011;1976;51.694;6.256;2023-02-07T03:35:23;62.07;;;22.90;;
3922;SDS011;1976;51.694;6.256;2023-02-07T03:37:54;68.60;;;21.00;;
3922;SDS011;1976;51.694;6.256;2023-02-07T03:40:22;100.20;;;23.87;;
3922;SDS011;1976;51.694;6.256;2023-02-07T03:45:50;85.43;;;23.30;;
3922;SDS011;1976;51.694;6.256;2023-02-07T03:48:16;64.73;;;20.20;;
3922;SDS011;1976;51.694;6.256;2023-02-07T03:50:42;93.80;;;21.60;;
3922;SDS011;1976;51.694;6.256;2023-02-07T03:53:07;53.73;;;22.07;;
3922;SDS011;1976;51.694;6.256;2023-02-07T03:55:33;75.03;;;22.27;;
3922;SDS011;1976;51.694;6.256;2023-02-07T03:57:59;110.57;;;20.33;;
3922;SDS011;1976;51.694;6.256;2023-02-07T04:00:25;90.83;;;20.60;;
3922;SDS011;1976;51.694;6.256;2023-02-07T04:02:51;80.27;;;17.70;;
3922;SDS011;1976;51.694;6.256;2023-02-07T04:05:17;71.37;;;18.90;;
3922;SDS011;1976;51.694;6.256;2023-02-07T04:07:42;86.23;;;19.50;;
3922;SDS011;1976;51.694;6.256;2023-02-07T04:10:08;84.27;;;18.43;;
3922;SDS011;1976;51.694;6.256;2023-02-07T04:12:34;66.90;;;17.90;;
3922;SDS011;1976;51.694;6.256;2023-02-07T04:15:03;120.20;;;19.40;;
3922;SDS011;1976;51.694;6.256;2023-02-07T04:17:30;48.90;;;16.80;;
3922;SDS011;1976;51.694;6.256;2023-02-07T04:19:56;68.10;;;15.60;;
3922;SDS011;1976;51.694;6.256;2023-02-07T04:22:21;58.40;;;17.40;;
3922;SDS011;1976;51.694;6.256;2023-02-07T04:24:47;44.57;;;15.60;;
3922;SDS011;1976;51.694;6.256;2023-02-07T04:27:13;126.23;;;18.63;;
3922;SDS011;1976;51.694;6.256;2023-02-07T04:29:38;128.47;;;18.93;;
3922;SDS011;1976;51.694;6.256;2023-02-07T04:32:04;40.63;;;15.97;;
3922;SDS011;1976;51.694;6.256;2023-02-07T04:34:29;63.70;;;15.37;;
3922;SDS011;1976;51.694;6.256;2023-02-07T04:36:55;144.13;;;16.77;;
3922;SDS011;1976;51.694;6.256;2023-02-07T04:39:21;113.70;;;18.93;;
3922;SDS011;1976;51.694;6.256;2023-02-07T04:41:46;86.00;;;19.70;;
3922;SDS011;1976;51.694;6.256;2023-02-07T04:44:12;80.97;;;17.40;;
3922;SDS011;1976;51.694;6.256;2023-02-07T04:46:38;66.43;;;18.17;;
3922;SDS011;1976;51.694;6.256;2023-02-07T04:49:03;42.60;;;15.90;;
3922;SDS011;1976;51.694;6.256;2023-02-07T04:51:29;97.37;;;17.83;;
3922;SDS011;1976;51.694;6.256;2023-02-07T04:53:56;80.60;;;18.57;;
3922;SDS011;1976;51.694;6.256;2023-02-07T04:56:22;55.33;;;17.20;;
3922;SDS011;1976;51.694;6.256;2023-02-07T04:58:48;68.10;;;18.90;;
3922;SDS011;1976;51.694;6.256;2023-02-07T05:01:13;70.80;;;16.90;;
3922;SDS011;1976;51.694;6.256;2023-02-07T05:03:39;47.33;;;16.77;;
3922;SDS011;1976;51.694;6.256;2023-02-07T05:06:05;29.33;;;11.40;;
3922;SDS011;1976;51.694;6.256;2023-02-07T05:08:31;44.33;;;14.70;;
3922;SDS011;1976;51.694;6.256;2023-02-07T05:10:57;69.10;;;14.37;;
3922;SDS011;1976;51.694;6.256;2023-02-07T05:13:23;122.17;;;17.27;;
3922;SDS011;1976;51.694;6.256;2023-02-07T05:15:48;67.30;;;16.70;;
3922;SDS011;1976;51.694;6.256;2023-02-07T05:18:14;31.10;;;14.53;;
3922;SDS011;1976;51.694;6.256;2023-02-07T05:20:40;35.87;;;14.00;;
3922;SDS011;1976;51.694;6.256;2023-02-07T05:23:05;86.53;;;13.93;;
3922;SDS011;1976;51.694;6.256;2023-02-07T05:25:31;34.30;;;13.60;;
3922;SDS011;1976;51.694;6.256;2023-02-07T05:27:56;42.80;;;14.37;;
3922;SDS011;1976;51.694;6.256;2023-02-07T05:30:22;39.30;;;14.80;;
3922;SDS011;1976;51.694;6.256;2023-02-07T05:32:48;29.23;;;14.80;;
3922;SDS011;1976;51.694;6.256;2023-02-07T05:35:30;73.40;;;16.07;;
3922;SDS011;1976;51.694;6.256;2023-02-07T05:38:06;68.67;;;18.00;;
3922;SDS011;1976;51.694;6.256;2023-02-07T05:40:34;32.87;;;16.37;;
3922;SDS011;1976;51.694;6.256;2023-02-07T05:43:01;34.13;;;14.73;;
3922;SDS011;1976;51.694;6.256;2023-02-07T05:45:27;37.37;;;15.73;;
3922;SDS011;1976;51.694;6.256;2023-02-07T05:47:53;36.70;;;16.00;;
3922;SDS011;1976;51.694;6.256;2023-02-07T05:50:18;42.17;;;12.87;;
3922;SDS011;1976;51.694;6.256;2023-02-07T05:52:44;67.17;;;15.97;;
3922;SDS011;1976;51.694;6.256;2023-02-07T05:55:10;47.30;;;15.00;;
3922;SDS011;1976;51.694;6.256;2023-02-07T05:57:37;72.40;;;15.33;;
3922;SDS011;1976;51.694;6.256;2023-02-07T06:00:07;48.90;;;15.50;;
3922;SDS011;1976;51.694;6.256;2023-02-07T06:02:43;56.13;;;14.17;;
3922;SDS011;1976;51.694;6.256;2023-02-07T06:05:13;61.17;;;14.20;;
3922;SDS011;1976;51.694;6.256;2023-02-07T06:07:42;89.17;;;15.40;;
3922;SDS011;1976;51.694;6.256;2023-02-07T06:10:10;38.67;;;15.77;;
3922;SDS011;1976;51.694;6.256;2023-02-07T06:12:36;50.43;;;16.13;;
3922;SDS011;1976;51.694;6.256;2023-02-07T06:15:02;26.63;;;13.37;;
3922;SDS011;1976;51.694;6.256;2023-02-07T06:17:28;63.83;;;15.60;;
3922;SDS011;1976;51.694;6.256;2023-02-07T06:19:54;37.77;;;12.40;;
3922;SDS011;1976;51.694;6.256;2023-02-07T06:22:19;47.93;;;16.47;;
3922;SDS011;1976;51.694;6.256;2023-02-07T06:24:45;33.80;;;13.40;;
3922;SDS011;1976;51.694;6.256;2023-02-07T06:27:10;36.73;;;14.70;;
3922;SDS011;1976;51.694;6.256;2023-02-07T06:29:36;68.30;;;13.77;;
3922;SDS011;1976;51.694;6.256;2023-02-07T06:32:02;103.67;;;13.57;;
3922;SDS011;1976;51.694;6.256;2023-02-07T06:34:28;84.03;;;12.77;;
3922;SDS011;1976;51.694;6.256;2023-02-07T06:36:53;80.67;;;13.43;;
3922;SDS011;1976;51.694;6.256;2023-02-07T06:39:19;48.87;;;13.20;;
3922;SDS011;1976;51.694;6.256;2023-02-07T06:41:44;36.47;;;13.57;;
3922;SDS011;1976;51.694;6.256;2023-02-07T06:44:10;100.93;;;14.43;;
3922;SDS011;1976;51.694;6.256;2023-02-07T06:46:36;49.53;;;14.20;;
3922;SDS011;1976;51.694;6.256;2023-02-07T06:49:01;43.07;;;13.70;;
3922;SDS011;1976;51.694;6.256;2023-02-07T06:51:27;44.67;;;14.60;;
3922;SDS011;1976;51.694;6.256;2023-02-07T06:53:53;52.73;;;13.70;;
3922;SDS011;1976;51.694;6.256;2023-02-07T06:56:18;37.90;;;15.37;;
3922;SDS011;1976;51.694;6.256;2023-02-07T06:58:44;35.13;;;13.97;;
3922;SDS011;1976;51.694;6.256;2023-02-07T07:01:10;36.20;;;14.10;;
3922;SDS011;1976;51.694;6.256;2023-02-07T07:03:35;60.80;;;16.07;;
3922;SDS011;1976;51.694;6.256;2023-02-07T07:06:01;49.43;;;14.67;;
3922;SDS011;1976;51.694;6.256;2023-02-07T07:08:27;35.97;;;14.70;;
3922;SDS011;1976;51.694;6.256;2023-02-07T07:10:53;30.90;;;12.80;;
3922;SDS011;1976;51.694;6.256;2023-02-07T07:13:19;35.30;;;14.33;;
3922;SDS011;1976;51.694;6.256;2023-02-07T07:15:45;55.73;;;15.73;;
3922;SDS011;1976;51.694;6.256;2023-02-07T07:18:11;33.23;;;13.17;;
3922;SDS011;1976;51.694;6.256;2023-02-07T07:20:37;35.60;;;15.23;;
3922;SDS011;1976;51.694;6.256;2023-02-07T07:23:03;34.63;;;13.20;;
3922;SDS011;1976;51.694;6.256;2023-02-07T07:25:28;35.10;;;14.93;;
3922;SDS011;1976;51.694;6.256;2023-02-07T07:27:54;37.10;;;13.80;;
3922;SDS011;1976;51.694;6.256;2023-02-07T07:30:20;58.23;;;16.33;;
3922;SDS011;1976;51.694;6.256;2023-02-07T07:32:45;38.77;;;13.90;;
3922;SDS011;1976;51.694;6.256;2023-02-07T07:35:11;38.97;;;14.40;;
3922;SDS011;1976;51.694;6.256;2023-02-07T07:37:37;32.90;;;12.47;;
3922;SDS011;1976;51.694;6.256;2023-02-07T07:40:03;30.13;;;14.20;;
3922;SDS011;1976;51.694;6.256;2023-02-07T07:42:29;33.10;;;14.37;;
3922;SDS011;1976;51.694;6.256;2023-02-07T07:44:54;35.83;;;13.83;;
3922;SDS011;1976;51.694;6.256;2023-02-07T07:47:20;22.50;;;11.77;;
3922;SDS011;1976;51.694;6.256;2023-02-07T07:49:46;26.30;;;12.47;;
3922;SDS011;1976;51.694;6.256;2023-02-07T07:52:11;26.17;;;11.67;;
3922;SDS011;1976;51.694;6.256;2023-02-07T07:54:37;29.73;;;12.90;;
3922;SDS011;1976;51.694;6.256;2023-02-07T07:57:02;39.80;;;13.50;;
3922;SDS011;1976;51.694;6.256;2023-02-07T07:59:28;31.80;;;12.30;;
3922;SDS011;1976;51.694;6.256;2023-02-07T08:01:54;37.60;;;13.10;;
3922;SDS011;1976;51.694;6.256;2023-02-07T08:04:20;24.93;;;11.40;;
3922;SDS011;1976;51.694;6.256;2023-02-07T08:06:45;38.53;;;14.83;;
3922;SDS011;1976;51.694;6.256;2023-02-07T08:09:11;26.70;;;13.17;;
3922;SDS011;1976;51.694;6.256;2023-02-07T08:11:36;41.77;;;14.07;;
3922;SDS011;1976;51.694;6.256;2023-02-07T08:14:02;47.40;;;12.60;;
3922;SDS011;1976;51.694;6.256;2023-02-07T08:16:28;40.13;;;12.33;;
3922;SDS011;1976;51.694;6.256;2023-02-07T08:18:53;32.07;;;13.33;;
3922;SDS011;1976;51.694;6.256;2023-02-07T08:21:19;29.87;;;14.30;;
3922;SDS011;1976;51.694;6.256;2023-02-07T08:23:45;34.00;;;14.13;;
3922;SDS011;1976;51.694;6.256;2023-02-07T08:26:10;25.73;;;15.17;;
3922;SDS011;1976;51.694;6.256;2023-02-07T08:28:36;26.27;;;13.27;;
3922;SDS011;1976;51.694;6.256;2023-02-07T08:31:03;31.83;;;12.33;;
3922;SDS011;1976;51.694;6.256;2023-02-07T08:33:30;37.37;;;12.63;;
3922;SDS011;1976;51.694;6.256;2023-02-07T08:35:55;24.43;;;11.90;;
3922;SDS011;1976;51.694;6.256;2023-02-07T08:38:22;31.73;;;12.07;;
3922;SDS011;1976;51.694;6.256;2023-02-07T08:40:48;22.93;;;12.60;;
3922;SDS011;1976;51.694;6.256;2023-02-07T08:43:14;34.80;;;13.43;;
3922;SDS011;1976;51.694;6.256;2023-02-07T08:45:41;23.50;;;14.17;;
3922;SDS011;1976;51.694;6.256;2023-02-07T08:48:10;23.60;;;14.20;;
3922;SDS011;1976;51.694;6.256;2023-02-07T08:50:35;26.10;;;12.90;;
3922;SDS011;1976;51.694;6.256;2023-02-07T08:53:01;20.90;;;10.87;;
3922;SDS011;1976;51.694;6.256;2023-02-07T08:55:27;20.97;;;12.60;;
3922;SDS011;1976;51.694;6.256;2023-02-07T08:57:52;20.00;;;12.47;;
3922;SDS011;1976;51.694;6.256;2023-02-07T09:00:18;22.40;;;12.70;;
3922;SDS011;1976;51.694;6.256;2023-02-07T09:02:44;27.77;;;14.33;;
3922;SDS011;1976;51.694;6.256;2023-02-07T09:05:10;29.17;;;14.00;;
3922;SDS011;1976;51.694;6.256;2023-02-07T09:07:35;20.83;;;12.80;;
3922;SDS011;1976;51.694;6.256;2023-02-07T09:10:01;19.67;;;12.33;;
3922;SDS011;1976;51.694;6.256;2023-02-07T09:12:29;27.20;;;14.80;;
3922;SDS011;1976;51.694;6.256;2023-02-07T09:14:55;26.13;;;13.63;;
3922;SDS011;1976;51.694;6.256;2023-02-07T09:17:20;17.87;;;12.60;;
3922;SDS011;1976;51.694;6.256;2023-02-07T09:19:46;34.37;;;13.33;;
3922;SDS011;1976;51.694;6.256;2023-02-07T09:22:12;22.20;;;12.73;;
3922;SDS011;1976;51.694;6.256;2023-02-07T09:24:38;20.83;;;13.53;;
3922;SDS011;1976;51.694;6.256;2023-02-07T09:27:04;24.73;;;12.77;;
3922;SDS011;1976;51.694;6.256;2023-02-07T09:29:29;21.10;;;12.37;;
3922;SDS011;1976;51.694;6.256;2023-02-07T09:31:55;18.77;;;11.53;;
3922;SDS011;1976;51.694;6.256;2023-02-07T09:34:20;18.90;;;12.70;;
3922;SDS011;1976;51.694;6.256;2023-02-07T09:36:46;22.10;;;11.37;;
3922;SDS011;1976;51.694;6.256;2023-02-07T09:39:14;17.53;;;11.57;;
3922;SDS011;1976;51.694;6.256;2023-02-07T09:44:49;18.07;;;11.80;;
3922;SDS011;1976;51.694;6.256;2023-02-07T09:47:22;14.10;;;9.63;;
3922;SDS011;1976;51.694;6.256;2023-02-07T09:50:03;14.83;;;10.90;;
3922;SDS011;1976;51.694;6.256;2023-02-07T09:57:52;16.73;;;10.07;;
3922;SDS011;1976;51.694;6.256;2023-02-07T10:00:28;14.50;;;9.37;;
3922;SDS011;1976;51.694;6.256;2023-02-07T10:02:57;17.37;;;9.03;;
3922;SDS011;1976;51.694;6.256;2023-02-07T10:05:43;11.57;;;7.37;;
3922;SDS011;1976;51.694;6.256;2023-02-07T10:08:14;12.63;;;8.63;;
3922;SDS011;1976;51.694;6.256;2023-02-07T10:14:00;24.00;;;8.33;;
3922;SDS011;1976;51.694;6.256;2023-02-07T10:17:02;11.10;;;7.23;;
3922;SDS011;1976;51.694;6.256;2023-02-07T10:22:29;12.30;;;6.50;;
3922;SDS011;1976;51.694;6.256;2023-02-07T10:28:00;10.80;;;7.07;;
3922;SDS011;1976;51.694;6.256;2023-02-07T10:30:41;12.70;;;7.10;;
3922;SDS011;1976;51.694;6.256;2023-02-07T10:33:23;14.17;;;7.10;;
3922;SDS011;1976;51.694;6.256;2023-02-07T10:35:54;11.60;;;6.80;;
3922;SDS011;1976;51.694;6.256;2023-02-07T10:40:53;15.77;;;6.60;;
3922;SDS011;1976;51.694;6.256;2023-02-07T10:43:30;12.40;;;6.87;;
3922;SDS011;1976;51.694;6.256;2023-02-07T10:45:58;11.80;;;6.80;;
3922;SDS011;1976;51.694;6.256;2023-02-07T10:48:33;11.47;;;6.87;;
3922;SDS011;1976;51.694;6.256;2023-02-07T10:51:02;10.23;;;7.27;;
3922;SDS011;1976;51.694;6.256;2023-02-07T10:53:40;12.63;;;6.20;;
3922;SDS011;1976;51.694;6.256;2023-02-07T10:56:30;10.97;;;6.17;;
3922;SDS011;1976;51.694;6.256;2023-02-07T10:58:56;14.33;;;5.60;;
3922;SDS011;1976;51.694;6.256;2023-02-07T11:01:23;8.97;;;5.87;;
3922;SDS011;1976;51.694;6.256;2023-02-07T11:03:51;11.07;;;5.70;;
3922;SDS011;1976;51.694;6.256;2023-02-07T11:06:25;10.83;;;5.53;;
3922;SDS011;1976;51.694;6.256;2023-02-07T11:09:09;7.90;;;5.10;;
3922;SDS011;1976;51.694;6.256;2023-02-07T11:11:35;7.13;;;5.00;;
3922;SDS011;1976;51.694;6.256;2023-02-07T11:14:04;5.37;;;4.50;;
3922;SDS011;1976;51.694;6.256;2023-02-07T11:16:30;8.13;;;5.53;;
3922;SDS011;1976;51.694;6.256;2023-02-07T11:18:57;7.30;;;5.53;;
3922;SDS011;1976;51.694;6.256;2023-02-07T11:24:26;9.73;;;6.90;;
3922;SDS011;1976;51.694;6.256;2023-02-07T11:29:26;10.53;;;6.30;;
3922;SDS011;1976;51.694;6.256;2023-02-07T11:31:53;9.53;;;6.70;;
3922;SDS011;1976;51.694;6.256;2023-02-07T11:37:30;11.67;;;6.40;;
3922;SDS011;1976;51.694;6.256;2023-02-07T11:42:43;7.97;;;6.80;;
3922;SDS011;1976;51.694;6.256;2023-02-07T11:45:12;11.60;;;7.30;;
3922;SDS011;1976;51.694;6.256;2023-02-07T11:47:40;9.63;;;6.00;;
3922;SDS011;1976;51.694;6.256;2023-02-07T11:50:10;10.87;;;6.33;;
3922;SDS011;1976;51.694;6.256;2023-02-07T11:53:00;9.07;;;7.43;;
3922;SDS011;1976;51.694;6.256;2023-02-07T11:55:29;8.60;;;5.83;;
3922;SDS011;1976;51.694;6.256;2023-02-07T11:57:56;7.20;;;5.63;;
3922;SDS011;1976;51.694;6.256;2023-02-07T12:00:33;12.03;;;6.70;;
3922;SDS011;1976;51.694;6.256;2023-02-07T12:03:01;10.10;;;7.20;;
3922;SDS011;1976;51.694;6.256;2023-02-07T12:05:34;11.20;;;7.10;;
3922;SDS011;1976;51.694;6.256;2023-02-07T12:08:05;8.20;;;6.23;;
3922;SDS011;1976;51.694;6.256;2023-02-07T12:10:37;13.40;;;7.00;;
3922;SDS011;1976;51.694;6.256;2023-02-07T12:16:08;8.80;;;6.40;;
3922;SDS011;1976;51.694;6.256;2023-02-07T12:18:40;8.67;;;6.33;;
3922;SDS011;1976;51.694;6.256;2023-02-07T12:21:40;7.93;;;5.60;;
3922;SDS011;1976;51.694;6.256;2023-02-07T12:24:12;10.63;;;6.07;;
3922;SDS011;1976;51.694;6.256;2023-02-07T12:26:52;8.00;;;5.87;;
3922;SDS011;1976;51.694;6.256;2023-02-07T12:29:33;8.97;;;6.00;;
3922;SDS011;1976;51.694;6.256;2023-02-07T12:32:39;8.37;;;6.00;;
3922;SDS011;1976;51.694;6.256;2023-02-07T12:40:38;11.37;;;7.23;;
3922;SDS011;1976;51.694;6.256;2023-02-07T12:43:23;10.80;;;6.30;;
3922;SDS011;1976;51.694;6.256;2023-02-07T12:46:02;11.70;;;7.40;;
3922;SDS011;1976;51.694;6.256;2023-02-07T12:54:54;10.90;;;6.73;;
3922;SDS011;1976;51.694;6.256;2023-02-07T12:57:36;9.73;;;6.53;;
3922;SDS011;1976;51.694;6.256;2023-02-07T13:00:27;10.07;;;6.90;;
3922;SDS011;1976;51.694;6.256;2023-02-07T13:03:13;9.80;;;6.00;;
3922;SDS011;1976;51.694;6.256;2023-02-07T13:11:39;9.57;;;6.20;;
3922;SDS011;1976;51.694;6.256;2023-02-07T13:17:37;7.77;;;5.73;;
3922;SDS011;1976;51.694;6.256;2023-02-07T13:23:00;8.20;;;5.67;;
3922;SDS011;1976;51.694;6.256;2023-02-07T13:25:43;11.60;;;6.50;;
3922;SDS011;1976;51.694;6.256;2023-02-07T13:31:00;10.40;;;6.10;;
3922;SDS011;1976;51.694;6.256;2023-02-07T13:33:29;11.10;;;6.07;;
3922;SDS011;1976;51.694;6.256;2023-02-07T13:36:06;7.93;;;5.70;;
3922;SDS011;1976;51.694;6.256;2023-02-07T13:38:43;7.00;;;5.30;;
3922;SDS011;1976;51.694;6.256;2023-02-07T13:41:33;10.10;;;5.60;;
3922;SDS011;1976;51.694;6.256;2023-02-07T13:57:40;6.10;;;4.70;;
3922;SDS011;1976;51.694;6.256;2023-02-07T14:00:28;7.03;;;4.23;;
3922;SDS011;1976;51.694;6.256;2023-02-07T14:02:59;6.63;;;4.70;;
3922;SDS011;1976;51.694;6.256;2023-02-07T14:05:29;4.00;;;3.63;;
3922;SDS011;1976;51.694;6.256;2023-02-07T14:07:58;8.97;;;5.73;;
3922;SDS011;1976;51.694;6.256;2023-02-07T14:13:22;8.53;;;4.47;;
3922;SDS011;1976;51.694;6.256;2023-02-07T14:15:58;8.57;;;5.07;;
3922;SDS011;1976;51.694;6.256;2023-02-07T14:23:56;9.87;;;5.13;;
3922;SDS011;1976;51.694;6.256;2023-02-07T14:27:00;5.00;;;4.17;;
3922;SDS011;1976;51.694;6.256;2023-02-07T14:31:56;5.90;;;4.67;;
3922;SDS011;1976;51.694;6.256;2023-02-07T14:34:28;6.67;;;4.87;;
3922;SDS011;1976;51.694;6.256;2023-02-07T14:36:55;8.17;;;5.43;;
3922;SDS011;1976;51.694;6.256;2023-02-07T14:39:22;7.47;;;4.90;;
3922;SDS011;1976;51.694;6.256;2023-02-07T14:42:10;10.97;;;4.97;;
3922;SDS011;1976;51.694;6.256;2023-02-07T14:44:45;13.23;;;5.80;;
3922;SDS011;1976;51.694;6.256;2023-02-07T14:47:26;8.43;;;5.00;;
3922;SDS011;1976;51.694;6.256;2023-02-07T14:49:54;7.93;;;4.80;;
3922;SDS011;1976;51.694;6.256;2023-02-07T14:52:31;9.60;;;5.13;;
3922;SDS011;1976;51.694;6.256;2023-02-07T14:55:00;7.00;;;4.30;;
3922;SDS011;1976;51.694;6.256;2023-02-07T14:57:58;6.77;;;4.80;;
3922;SDS011;1976;51.694;6.256;2023-02-07T15:00:45;10.20;;;4.90;;
3922;SDS011;1976;51.694;6.256;2023-02-07T15:03:14;8.60;;;4.70;;
3922;SDS011;1976;51.694;6.256;2023-02-07T15:05:49;12.90;;;5.93;;
3922;SDS011;1976;51.694;6.256;2023-02-07T15:08:18;15.03;;;5.17;;
3922;SDS011;1976;51.694;6.256;2023-02-07T15:10:55;10.97;;;5.37;;
3922;SDS011;1976;51.694;6.256;2023-02-07T15:19:21;11.27;;;5.57;;
3922;SDS011;1976;51.694;6.256;2023-02-07T15:24:16;12.00;;;6.60;;
3922;SDS011;1976;51.694;6.256;2023-02-07T15:26:48;10.93;;;5.20;;
3922;SDS011;1976;51.694;6.256;2023-02-07T15:29:18;10.80;;;5.50;;
3922;SDS011;1976;51.694;6.256;2023-02-07T15:31:46;7.60;;;5.10;;
3922;SDS011;1976;51.694;6.256;2023-02-07T15:34:30;8.57;;;5.33;;
3922;SDS011;1976;51.694;6.256;2023-02-07T15:36:59;10.70;;;5.73;;
3922;SDS011;1976;51.694;6.256;2023-02-07T15:39:54;7.67;;;5.10;;
3922;SDS011;1976;51.694;6.256;2023-02-07T15:42:21;8.57;;;5.33;;
3922;SDS011;1976;51.694;6.256;2023-02-07T15:52:49;7.83;;;3.70;;
3922;SDS011;1976;51.694;6.256;2023-02-07T15:58:00;7.43;;;4.50;;
3922;SDS011;1976;51.694;6.256;2023-02-07T16:00:27;7.37;;;4.63;;
3922;SDS011;1976;51.694;6.256;2023-02-07T16:02:59;6.93;;;4.90;;
3922;SDS011;1976;51.694;6.256;2023-02-07T16:05:32;10.13;;;5.37;;
3922;SDS011;1976;51.694;6.256;2023-02-07T16:08:05;7.20;;;4.83;;
3922;SDS011;1976;51.694;6.256;2023-02-07T16:10:50;8.30;;;5.17;;
3922;SDS011;1976;51.694;6.256;2023-02-07T16:13:17;10.43;;;5.90;;
3922;SDS011;1976;51.694;6.256;2023-02-07T16:15:52;7.80;;;5.70;;
3922;SDS011;1976;51.694;6.256;2023-02-07T16:18:38;7.50;;;5.80;;
3922;SDS011;1976;51.694;6.256;2023-02-07T16:21:06;10.37;;;6.13;;
3922;SDS011;1976;51.694;6.256;2023-02-07T16:23:41;17.60;;;6.67;;
3922;SDS011;1976;51.694;6.256;2023-02-07T16:26:08;15.60;;;4.80;;
3922;SDS011;1976;51.694;6.256;2023-02-07T16:28:34;12.13;;;6.23;;
3922;SDS011;1976;51.694;6.256;2023-02-07T16:31:00;20.07;;;6.03;;
3922;SDS011;1976;51.694;6.256;2023-02-07T16:33:26;11.20;;;4.83;;
3922;SDS011;1976;51.694;6.256;2023-02-07T16:35:52;11.67;;;5.50;;
3922;SDS011;1976;51.694;6.256;2023-02-07T16:38:17;8.37;;;5.53;;
3922;SDS011;1976;51.694;6.256;2023-02-07T16:40:43;8.90;;;5.50;;
3922;SDS011;1976;51.694;6.256;2023-02-07T16:43:10;16.00;;;6.13;;
3922;SDS011;1976;51.694;6.256;2023-02-07T16:45:50;4.83;;;3.77;;
3922;SDS011;1976;51.694;6.256;2023-02-07T16:48:16;11.90;;;5.67;;
3922;SDS011;1976;51.694;6.256;2023-02-07T16:50:41;8.37;;;5.43;;
3922;SDS011;1976;51.694;6.256;2023-02-07T16:53:07;11.30;;;5.90;;
3922;SDS011;1976;51.694;6.256;2023-02-07T16:55:32;10.00;;;4.97;;
3922;SDS011;1976;51.694;6.256;2023-02-07T16:57:59;7.00;;;5.17;;
3922;SDS011;1976;51.694;6.256;2023-02-07T17:00:28;8.13;;;5.53;;
3922;SDS011;1976;51.694;6.256;2023-02-07T17:02:54;9.57;;;6.00;;
3922;SDS011;1976;51.694;6.256;2023-02-07T17:05:20;12.83;;;5.80;;
3922;SDS011;1976;51.694;6.256;2023-02-07T17:07:47;8.20;;;6.03;;
3922;SDS011;1976;51.694;6.256;2023-02-07T17:10:18;8.50;;;6.10;;
3922;SDS011;1976;51.694;6.256;2023-02-07T17:12:47;10.23;;;6.10;;
3922;SDS011;1976;51.694;6.256;2023-02-07T17:15:13;7.97;;;5.70;;
3922;SDS011;1976;51.694;6.256;2023-02-07T17:17:39;11.00;;;5.67;;
3922;SDS011;1976;51.694;6.256;2023-02-07T17:20:11;11.50;;;6.30;;
3922;SDS011;1976;51.694;6.256;2023-02-07T17:22:46;8.70;;;6.10;;
3922;SDS011;1976;51.694;6.256;2023-02-07T17:25:12;11.97;;;6.73;;
3922;SDS011;1976;51.694;6.256;2023-02-07T17:27:38;9.77;;;6.40;;
3922;SDS011;1976;51.694;6.256;2023-02-07T17:30:08;9.47;;;6.13;;
3922;SDS011;1976;51.694;6.256;2023-02-07T17:32:41;9.40;;;6.20;;
3922;SDS011;1976;51.694;6.256;2023-02-07T17:35:07;18.23;;;6.70;;
3922;SDS011;1976;51.694;6.256;2023-02-07T17:37:33;12.87;;;7.77;;
3922;SDS011;1976;51.694;6.256;2023-02-07T17:39:59;14.80;;;7.50;;
3922;SDS011;1976;51.694;6.256;2023-02-07T17:42:24;12.70;;;7.20;;
3922;SDS011;1976;51.694;6.256;2023-02-07T17:44:50;15.93;;;7.27;;